createdAt,value
2019-03-03T00:02:28.576Z,100571.94
2019-03-03T00:05:01.859Z,100585.11
2019-03-03T00:07:35.854Z,100581.97
2019-03-03T00:10:18.407Z,100585.71
2019-03-03T00:12:51.964Z,100587.48
2019-03-03T00:15:25.242Z,100588.16
2019-03-03T00:17:58.382Z,100586.92
2019-03-03T00:20:42.241Z,100580.68
2019-03-03T00:23:15.406Z,100572.56
2019-03-03T00:25:48.502Z,100581.19
2019-03-03T00:28:22.220Z,100568.08
2019-03-03T00:30:55.697Z,100565.17
2019-03-03T00:33:30.595Z,100561.76
2019-03-03T00:36:03.705Z,100560.99
2019-03-03T00:38:55.809Z,100557.28
2019-03-03T00:42:11.807Z,100538.95
2019-03-03T00:45:33.532Z,100546.33
2019-03-03T00:48:41.387Z,100550.28
2019-03-03T00:51:59.076Z,100538.20
2019-03-03T00:55:04.911Z,100536.32
2019-03-03T00:57:48.983Z,100538.63
2019-03-03T01:00:38.063Z,100533.10
2019-03-03T01:03:32.119Z,100526.27
2019-03-03T01:06:33.883Z,100522.52
2019-03-03T01:09:55.465Z,100519.23
2019-03-03T01:12:38.705Z,100517.02
2019-03-03T01:15:31.160Z,100511.05
2019-03-03T01:18:15.375Z,100510.58
2019-03-03T01:20:59.706Z,100510.38
2019-03-03T01:23:50.537Z,100506.69
2019-03-03T01:26:26.230Z,100505.25
2019-03-03T01:28:59.390Z,100499.27
2019-03-03T01:31:32.902Z,100496.29
2019-03-03T01:34:06.326Z,100493.97
2019-03-03T01:36:48.651Z,100483.60
2019-03-03T01:39:22.412Z,100488.91
2019-03-03T01:42:05.460Z,100481.05
2019-03-03T01:44:47.689Z,100472.22
2019-03-03T01:47:21.144Z,100469.95
2019-03-03T01:49:54.292Z,100471.29
2019-03-03T01:52:28.366Z,100469.35
2019-03-03T01:55:01.816Z,100453.85
2019-03-03T01:57:35.321Z,100460.73
2019-03-03T02:00:17.439Z,100459.22
2019-03-03T02:02:51.002Z,100452.51
2019-03-03T02:05:25.276Z,100452.81
2019-03-03T02:08:07.543Z,100448.31
2019-03-03T02:10:40.927Z,100448.78
2019-03-03T02:13:16.809Z,100447.95
2019-03-03T02:15:59.102Z,100430.63
2019-03-03T02:18:33.046Z,100426.42
2019-03-03T02:21:16.170Z,100425.27
2019-03-03T02:23:59.064Z,100433.67
2019-03-03T02:26:41.322Z,100420.84
2019-03-03T02:29:15.148Z,100418.49
2019-03-03T02:31:49.900Z,100430.69
2019-03-03T02:34:23.532Z,100424.52
2019-03-03T02:36:56.960Z,100418.61
2019-03-03T02:39:30.145Z,100417.27
2019-03-03T02:42:03.565Z,100423.80
2019-03-03T02:44:47.078Z,100408.00
2019-03-03T02:47:20.235Z,100411.61
2019-03-03T02:49:53.809Z,100393.42
2019-03-03T02:52:27.256Z,100391.21
2019-03-03T02:55:01.010Z,100400.88
2019-03-03T02:57:34.527Z,100381.05
2019-03-03T03:00:12.438Z,100384.89
2019-03-03T03:02:58.942Z,100387.42
2019-03-03T03:06:00.453Z,100369.03
2019-03-03T03:08:39.738Z,100372.55
2019-03-03T03:11:30.925Z,100367.44
2019-03-03T03:14:12.901Z,100360.17
2019-03-03T03:17:02.460Z,100371.71
2019-03-03T03:19:53.011Z,100358.29
2019-03-03T03:22:54.317Z,100351.19
2019-03-03T03:25:54.592Z,100350.59
2019-03-03T03:29:04.472Z,100336.94
2019-03-03T03:32:32.083Z,100338.33
2019-03-03T03:35:24.702Z,100340.91
2019-03-03T03:38:38.323Z,100331.63
2019-03-03T03:41:19.601Z,100328.32
2019-03-03T03:44:02.508Z,100325.40
2019-03-03T03:46:56.670Z,100312.78
2019-03-03T03:50:02.731Z,100303.69
2019-03-03T03:52:53.894Z,100297.52
2019-03-03T03:55:47.387Z,100296.73
2019-03-03T03:58:29.338Z,100293.86
2019-03-03T04:01:25.694Z,100282.23
2019-03-03T04:04:35.717Z,100269.40
2019-03-03T04:07:14.658Z,100269.80
2019-03-03T04:10:17.719Z,100258.13
2019-03-03T04:13:24.700Z,100263.20
2019-03-03T04:16:13.150Z,100252.12
2019-03-03T04:19:21.379Z,100253.91
2019-03-03T04:22:34.456Z,100253.15
2019-03-03T04:25:18.355Z,100244.45
2019-03-03T04:28:13.234Z,100248.23
2019-03-03T04:31:26.691Z,100243.84
2019-03-03T04:34:10.023Z,100236.26
2019-03-03T04:36:52.973Z,100236.09
2019-03-03T04:39:50.258Z,100231.47
2019-03-03T04:42:38.923Z,100224.00
2019-03-03T04:45:27.234Z,100223.52
2019-03-03T04:48:26.136Z,100225.95
2019-03-03T04:51:08.678Z,100221.38
2019-03-03T04:54:26.306Z,100211.03
2019-03-03T04:57:39.565Z,100207.00
2019-03-03T05:00:47.381Z,100208.55
2019-03-03T05:03:35.818Z,100213.27
2019-03-03T05:06:56.288Z,100214.97
2019-03-03T05:09:47.093Z,100215.08
2019-03-03T05:12:53.801Z,100204.83
2019-03-03T05:16:04.190Z,100192.75
2019-03-03T05:18:49.490Z,100215.83
2019-03-03T05:21:23.311Z,100206.41
2019-03-03T05:23:56.800Z,100208.22
2019-03-03T05:26:31.470Z,100214.78
2019-03-03T05:29:04.642Z,100212.77
2019-03-03T05:31:49.066Z,100205.18
2019-03-03T05:34:31.658Z,100200.73
2019-03-03T05:37:14.642Z,100201.73
2019-03-03T05:39:57.328Z,100199.69
2019-03-03T05:42:31.371Z,100196.29
2019-03-03T05:45:13.850Z,100199.22
2019-03-03T05:47:47.116Z,100205.97
2019-03-03T05:50:19.934Z,100199.15
2019-03-03T05:53:08.166Z,100189.95
2019-03-03T05:55:41.819Z,100187.99
2019-03-03T05:58:15.606Z,100187.64
2019-03-03T06:00:58.322Z,100191.42
2019-03-03T06:03:31.550Z,100189.41
2019-03-03T06:06:05.041Z,100185.89
2019-03-03T06:08:39.009Z,100191.48
2019-03-03T06:11:12.470Z,100192.23
2019-03-03T06:13:46.558Z,100181.75
2019-03-03T06:16:35.574Z,100181.56
2019-03-03T06:19:17.575Z,100178.89
2019-03-03T06:21:51.088Z,100191.13
2019-03-03T06:24:25.050Z,100188.45
2019-03-03T06:26:59.503Z,100187.41
2019-03-03T06:29:33.631Z,100197.38
2019-03-03T06:32:07.097Z,100181.75
2019-03-03T06:34:40.489Z,100189.23
2019-03-03T06:37:14.827Z,100185.87
2019-03-03T06:39:49.060Z,100189.37
2019-03-03T06:42:23.970Z,100190.19
2019-03-03T06:45:09.881Z,100184.97
2019-03-03T06:47:45.502Z,100194.20
2019-03-03T06:50:27.664Z,100184.44
2019-03-03T06:53:00.866Z,100175.14
2019-03-03T06:55:34.654Z,100196.08
2019-03-03T06:58:09.095Z,100182.09
2019-03-03T07:00:52.243Z,100193.01
2019-03-03T07:03:36.086Z,100184.44
2019-03-03T07:06:09.503Z,100183.27
2019-03-03T07:08:43.033Z,100181.94
2019-03-03T07:11:17.075Z,100182.53
2019-03-03T07:13:51.030Z,100180.41
2019-03-03T07:16:34.254Z,100180.77
2019-03-03T07:19:07.852Z,100181.75
2019-03-03T07:21:41.769Z,100175.64
2019-03-03T07:24:15.782Z,100185.08
2019-03-03T07:26:49.396Z,100186.48
2019-03-03T07:29:23.828Z,100180.08
2019-03-03T07:31:57.975Z,100178.20
2019-03-03T07:34:32.148Z,100189.72
2019-03-03T07:37:15.039Z,100184.72
2019-03-03T07:40:06.724Z,100185.55
2019-03-03T07:42:49.620Z,100187.16
2019-03-03T07:45:32.703Z,100182.87
2019-03-03T07:48:15.046Z,100184.72
2019-03-03T07:50:48.465Z,100194.05
2019-03-03T07:53:21.676Z,100183.32
2019-03-03T07:55:54.928Z,100187.40
2019-03-03T07:58:37.512Z,100184.83
2019-03-03T08:01:20.500Z,100182.80
2019-03-03T08:03:53.745Z,100191.53
2019-03-03T08:06:37.125Z,100190.06
2019-03-03T08:09:11.493Z,100195.10
2019-03-03T08:11:45.233Z,100216.55
2019-03-03T08:14:19.313Z,100216.55
2019-03-03T08:17:01.770Z,100205.34
2019-03-03T08:19:36.524Z,100217.00
2019-03-03T08:22:21.468Z,100219.37
2019-03-03T08:24:55.090Z,100220.89
2019-03-03T08:27:28.666Z,100231.11
2019-03-03T08:30:02.715Z,100216.42
2019-03-03T08:32:44.979Z,100215.41
2019-03-03T08:35:18.506Z,100219.55
2019-03-03T08:37:52.423Z,100213.15
2019-03-03T08:40:25.644Z,100212.10
2019-03-03T08:43:04.535Z,100216.42
2019-03-03T08:45:59.573Z,100214.55
2019-03-03T08:49:21.724Z,100209.64
2019-03-03T08:52:30.324Z,100216.80
2019-03-03T08:55:25.702Z,100215.64
2019-03-03T08:58:34.730Z,100205.92
2019-03-03T09:01:17.497Z,100209.59
2019-03-03T09:04:26.337Z,100202.75
2019-03-03T09:07:19.172Z,100227.37
2019-03-03T09:10:00.871Z,100226.78
2019-03-03T09:13:25.570Z,100222.92
2019-03-03T09:16:37.980Z,100229.68
2019-03-03T09:19:43.153Z,100234.40
2019-03-03T09:22:55.169Z,100235.91
2019-03-03T09:25:46.501Z,100232.36
2019-03-03T09:28:35.604Z,100238.34
2019-03-03T09:31:34.126Z,100238.40
2019-03-03T09:34:49.312Z,100234.03
2019-03-03T09:37:30.348Z,100225.09
2019-03-03T09:40:25.590Z,100228.13
2019-03-03T09:43:16.784Z,100237.33
2019-03-03T09:46:32.674Z,100233.09
2019-03-03T09:49:27.718Z,100230.48
2019-03-03T09:52:19.838Z,100234.00
2019-03-03T09:55:37.624Z,100233.31
2019-03-03T09:58:53.024Z,100232.62
2019-03-03T10:02:02.884Z,100219.86
2019-03-03T10:05:27.405Z,100219.86
2019-03-03T10:08:23.064Z,100221.44
2019-03-03T10:11:14.870Z,100227.11
2019-03-03T10:14:07.193Z,100226.30
2019-03-03T10:16:58.617Z,100226.30
2019-03-03T10:19:44.878Z,100234.72
2019-03-03T10:22:36.401Z,100220.78
2019-03-03T10:25:27.031Z,100218.15
2019-03-03T10:28:48.134Z,100225.25
2019-03-03T10:31:38.535Z,100231.91
2019-03-03T10:34:50.784Z,100226.91
2019-03-03T10:37:39.036Z,100228.74
2019-03-03T10:40:47.639Z,100227.64
2019-03-03T10:43:40.156Z,100230.52
2019-03-03T10:46:36.590Z,100228.11
2019-03-03T10:49:17.954Z,100228.69
2019-03-03T10:52:04.448Z,100230.52
2019-03-03T10:54:55.791Z,100224.86
2019-03-03T10:57:48.353Z,100224.33
2019-03-03T11:00:41.207Z,100225.62
2019-03-03T11:03:34.133Z,100222.18
2019-03-03T11:06:27.299Z,100221.34
2019-03-03T11:09:37.432Z,100213.29
2019-03-03T11:12:37.702Z,100217.56
2019-03-03T11:15:47.177Z,100216.61
2019-03-03T11:18:42.444Z,100211.64
2019-03-03T11:22:09.560Z,100208.45
2019-03-03T11:25:22.655Z,100203.43
2019-03-03T11:28:36.579Z,100206.12
2019-03-03T11:31:34.978Z,100198.91
2019-03-03T11:34:29.727Z,100205.02
2019-03-03T11:37:15.356Z,100203.43
2019-03-03T11:40:07.912Z,100210.48
2019-03-03T11:43:00.340Z,100195.42
2019-03-03T11:46:20.819Z,100194.73
2019-03-03T11:49:32.305Z,100200.39
2019-03-03T11:52:53.094Z,100183.23
2019-03-03T11:56:14.315Z,100179.97
2019-03-03T11:59:12.737Z,100179.16
2019-03-03T12:02:39.941Z,100186.47
2019-03-03T12:05:41.432Z,100174.84
2019-03-03T12:08:33.562Z,100174.59
2019-03-03T12:11:17.791Z,100174.05
2019-03-03T12:14:28.469Z,100168.52
2019-03-03T12:17:43.518Z,100168.56
2019-03-03T12:20:33.000Z,100170.86
2019-03-03T12:23:41.423Z,100154.25
2019-03-03T12:26:23.936Z,100164.73
2019-03-03T12:29:20.585Z,100157.19
2019-03-03T12:32:23.574Z,100159.16
2019-03-03T12:37:59.371Z,100151.66
2019-03-03T12:41:10.114Z,100146.20
2019-03-03T12:44:19.638Z,100145.15
2019-03-03T12:47:18.742Z,100125.88
2019-03-03T12:50:17.487Z,100131.72
2019-03-03T12:53:10.962Z,100124.80
2019-03-03T12:56:12.457Z,100120.30
2019-03-03T12:59:07.775Z,100122.70
2019-03-03T13:02:06.442Z,100110.91
2019-03-03T13:05:14.788Z,100110.53
2019-03-03T13:08:45.320Z,100105.41
2019-03-03T13:11:25.839Z,100102.94
2019-03-03T13:14:24.373Z,100103.98
2019-03-03T13:17:34.863Z,100093.61
2019-03-03T13:20:29.656Z,100094.91
2019-03-03T13:23:40.586Z,100081.52
2019-03-03T13:26:45.398Z,100084.21
2019-03-03T13:29:43.986Z,100078.26
2019-03-03T13:32:41.556Z,100073.00
2019-03-03T13:35:32.524Z,100071.58
2019-03-03T13:38:31.077Z,100065.20
2019-03-03T13:41:35.130Z,100054.70
2019-03-03T13:44:09.100Z,100047.95
2019-03-03T13:46:43.308Z,100049.58
2019-03-03T13:49:25.936Z,100042.44
2019-03-03T13:52:03.310Z,100049.12
2019-03-03T13:54:37.148Z,100035.14
2019-03-03T13:57:10.695Z,100033.51
2019-03-03T13:59:44.415Z,100035.65
2019-03-03T14:02:21.979Z,100028.14
2019-03-03T14:05:04.779Z,100019.92
2019-03-03T14:07:37.908Z,100015.58
2019-03-03T14:10:12.593Z,100017.97
2019-03-03T14:12:45.695Z,100015.32
2019-03-03T14:15:20.493Z,100011.00
2019-03-03T14:17:53.587Z,100009.41
2019-03-03T14:20:27.152Z,100005.41
2019-03-03T14:23:01.033Z,100001.95
2019-03-03T14:25:34.546Z,100001.99
2019-03-03T14:28:08.145Z,99993.16
2019-03-03T14:30:54.293Z,99988.41
2019-03-03T14:33:28.345Z,99982.42
2019-03-03T14:36:01.569Z,99985.14
2019-03-03T14:38:35.962Z,99974.10
2019-03-03T14:41:09.712Z,99978.94
2019-03-03T14:43:42.475Z,99974.10
2019-03-03T14:46:17.216Z,99969.02
2019-03-03T14:48:51.560Z,99978.70
2019-03-03T14:51:34.198Z,99967.73
2019-03-03T14:54:10.638Z,99970.97
2019-03-03T14:56:49.114Z,99962.94
2019-03-03T14:59:22.286Z,99956.47
2019-03-03T15:01:56.183Z,99956.47
2019-03-03T15:04:30.003Z,99953.76
2019-03-03T15:07:14.877Z,99951.42
2019-03-03T15:09:58.041Z,99951.13
2019-03-03T15:12:46.335Z,99957.30
2019-03-03T15:15:21.485Z,99954.84
2019-03-03T15:18:00.970Z,99952.44
2019-03-03T15:20:34.398Z,99948.16
2019-03-03T15:23:08.139Z,99954.59
2019-03-03T15:25:41.674Z,99949.24
2019-03-03T15:28:15.198Z,99948.16
2019-03-03T15:30:48.442Z,99943.84
2019-03-03T15:33:32.976Z,99930.46
2019-03-03T15:36:18.942Z,99932.86
2019-03-03T15:39:08.002Z,99934.01
2019-03-03T15:41:59.691Z,99927.77
2019-03-03T15:44:32.848Z,99932.03
2019-03-03T15:47:07.372Z,99925.60
2019-03-03T15:49:50.282Z,99922.69
2019-03-03T15:52:23.474Z,99920.73
2019-03-03T15:55:06.266Z,99918.14
2019-03-03T15:57:49.279Z,99906.88
2019-03-03T16:00:32.923Z,99906.84
2019-03-03T16:03:06.861Z,99903.30
2019-03-03T16:05:40.747Z,99906.27
2019-03-03T16:08:14.206Z,99901.16
2019-03-03T16:10:49.001Z,99898.21
2019-03-03T16:13:22.562Z,99899.84
2019-03-03T16:15:56.080Z,99892.84
2019-03-03T16:18:29.595Z,99898.78
2019-03-03T16:21:03.192Z,99900.13
2019-03-03T16:23:36.351Z,99895.81
2019-03-03T16:26:18.320Z,99890.46
2019-03-03T16:28:52.484Z,99887.69
2019-03-03T16:31:35.638Z,99881.29
2019-03-03T16:34:09.871Z,99883.95
2019-03-03T16:36:43.335Z,99880.98
2019-03-03T16:39:17.001Z,99879.92
2019-03-03T16:41:50.132Z,99870.80
2019-03-03T16:44:24.254Z,99868.36
2019-03-03T16:46:57.959Z,99864.33
2019-03-03T16:49:31.562Z,99868.11
2019-03-03T16:52:04.975Z,99864.85
2019-03-03T16:54:38.494Z,99861.08
2019-03-03T16:57:12.338Z,99858.66
2019-03-03T16:59:46.037Z,99858.13
2019-03-03T17:02:19.874Z,99851.65
2019-03-03T17:04:53.523Z,99852.42
2019-03-03T17:07:27.017Z,99846.53
2019-03-03T17:10:00.551Z,99847.87
2019-03-03T17:12:34.547Z,99846.50
2019-03-03T17:15:21.477Z,99840.09
2019-03-03T17:17:54.726Z,99831.73
2019-03-03T17:20:28.138Z,99830.38
2019-03-03T17:23:02.249Z,99837.08
2019-03-03T17:25:35.523Z,99838.94
2019-03-03T17:28:09.455Z,99830.36
2019-03-03T17:30:42.488Z,99828.73
2019-03-03T17:33:15.619Z,99824.70
2019-03-03T17:35:58.579Z,99823.09
2019-03-03T17:38:41.088Z,99822.84
2019-03-03T17:41:14.941Z,99826.02
2019-03-03T17:43:50.103Z,99819.02
2019-03-03T17:46:36.122Z,99810.72
2019-03-03T17:49:18.768Z,99815.03
2019-03-03T17:51:51.878Z,99813.36
2019-03-03T17:54:25.117Z,99813.88
2019-03-03T17:56:59.015Z,99815.25
2019-03-03T17:59:33.176Z,99807.45
2019-03-03T18:02:07.165Z,99804.76
2019-03-03T18:04:52.016Z,99801.84
2019-03-03T18:07:25.174Z,99797.47
2019-03-03T18:10:13.232Z,99789.75
2019-03-03T18:12:47.727Z,99792.12
2019-03-03T18:15:20.458Z,99788.92
2019-03-03T18:17:54.962Z,99779.52
2019-03-03T18:20:28.643Z,99772.80
2019-03-03T18:23:02.205Z,99768.20
2019-03-03T18:25:35.429Z,99776.27
2019-03-03T18:28:17.887Z,99773.34
2019-03-03T18:30:51.332Z,99771.41
2019-03-03T18:33:24.797Z,99770.07
2019-03-03T18:35:58.685Z,99765.23
2019-03-03T18:38:32.238Z,99761.20
2019-03-03T18:41:05.323Z,99754.52
2019-03-03T18:43:38.529Z,99748.06
2019-03-03T18:46:12.180Z,99747.27
2019-03-03T18:48:45.474Z,99745.09
2019-03-03T18:51:29.072Z,99740.83
2019-03-03T18:54:14.942Z,99741.94
2019-03-03T18:56:48.727Z,99746.45
2019-03-03T18:59:22.675Z,99748.63
2019-03-03T19:01:55.858Z,99744.85
2019-03-03T19:04:29.753Z,99744.05
2019-03-03T19:07:03.376Z,99741.63
2019-03-03T19:09:37.572Z,99744.60
2019-03-03T19:12:29.729Z,99743.30
2019-03-03T19:15:03.441Z,99736.80
2019-03-03T19:17:37.550Z,99732.23
2019-03-03T19:20:11.467Z,99732.51
2019-03-03T19:22:54.352Z,99721.81
2019-03-03T19:25:28.020Z,99727.39
2019-03-03T19:28:01.167Z,99725.27
2019-03-03T19:30:56.220Z,99723.16
2019-03-03T19:34:05.171Z,99719.70
2019-03-03T19:36:45.887Z,99719.70
2019-03-03T19:39:36.627Z,99713.80
2019-03-03T19:42:10.770Z,99717.25
2019-03-03T19:44:44.551Z,99712.17
2019-03-03T19:47:26.764Z,99703.03
2019-03-03T19:50:00.008Z,99708.38
2019-03-03T19:52:33.695Z,99706.45
2019-03-03T19:55:08.232Z,99699.45
2019-03-03T19:57:56.560Z,99697.11
2019-03-03T20:00:36.836Z,99699.19
2019-03-03T20:03:22.144Z,99698.42
2019-03-03T20:05:57.595Z,99690.06
2019-03-03T20:08:31.570Z,99691.97
2019-03-03T20:11:14.458Z,99686.89
2019-03-03T20:13:56.662Z,99684.73
2019-03-03T20:16:29.806Z,99678.26
2019-03-03T20:19:05.378Z,99668.33
2019-03-03T20:21:38.757Z,99664.34
2019-03-03T20:24:12.708Z,99664.34
2019-03-03T20:26:46.558Z,99667.02
2019-03-03T20:29:20.198Z,99653.59
2019-03-03T20:31:53.410Z,99650.11
2019-03-03T20:34:27.375Z,99649.56
2019-03-03T20:37:00.505Z,99642.34
2019-03-03T20:39:34.448Z,99636.97
2019-03-03T20:42:07.708Z,99633.76
2019-03-03T20:44:51.764Z,99618.73
2019-03-03T20:47:26.424Z,99617.34
2019-03-03T20:50:01.076Z,99616.54
2019-03-03T20:52:37.560Z,99610.60
2019-03-03T20:55:12.862Z,99604.40
2019-03-03T20:57:47.249Z,99598.74
2019-03-03T21:00:31.050Z,99593.44
2019-03-03T21:03:06.858Z,99591.78
2019-03-03T21:05:40.227Z,99589.37
2019-03-03T21:08:13.989Z,99578.89
2019-03-03T21:10:48.936Z,99578.89
2019-03-03T21:13:22.090Z,99571.64
2019-03-03T21:15:57.420Z,99565.45
2019-03-03T21:18:30.847Z,99560.07
2019-03-03T21:21:04.112Z,99558.46
2019-03-03T21:23:46.387Z,99550.43
2019-03-03T21:26:21.618Z,99552.30
2019-03-03T21:28:55.177Z,99553.12
2019-03-03T21:31:29.694Z,99545.34
2019-03-03T21:34:02.972Z,99530.80
2019-03-03T21:36:45.083Z,99533.50
2019-03-03T21:39:18.693Z,99535.59
2019-03-03T21:41:52.605Z,99527.28
2019-03-03T21:44:36.577Z,99523.02
2019-03-03T21:47:11.279Z,99524.09
2019-03-03T21:49:54.994Z,99520.35
2019-03-03T21:52:37.538Z,99507.23
2019-03-03T21:55:11.435Z,99503.73
2019-03-03T21:57:45.970Z,99508.03
2019-03-03T22:00:25.581Z,99500.21
2019-03-03T22:03:07.981Z,99496.77
2019-03-03T22:05:50.757Z,99492.80
2019-03-03T22:08:24.667Z,99495.48
2019-03-03T22:11:12.397Z,99492.28
2019-03-03T22:13:55.215Z,99491.48
2019-03-03T22:16:37.651Z,99494.46
2019-03-03T22:19:11.188Z,99489.87
2019-03-03T22:21:46.208Z,99486.61
2019-03-03T22:24:22.273Z,99478.53
2019-03-03T22:27:04.248Z,99464.05
2019-03-03T22:29:37.763Z,99460.55
2019-03-03T22:32:11.373Z,99458.13
2019-03-03T22:34:45.200Z,99452.22
2019-03-03T22:37:18.662Z,99457.03
2019-03-03T22:39:52.108Z,99451.15
2019-03-03T22:42:26.669Z,99440.92
2019-03-03T22:45:10.568Z,99449.00
2019-03-03T22:47:44.051Z,99446.06
2019-03-03T22:50:18.242Z,99445.25
2019-03-03T22:53:00.731Z,99442.30
2019-03-03T22:55:40.416Z,99441.49
2019-03-03T22:58:13.410Z,99447.95
2019-03-03T23:01:28.082Z,99443.64
2019-03-03T23:05:15.750Z,99433.97
2019-03-03T23:08:05.334Z,99435.31
2019-03-03T23:11:31.866Z,99428.59
2019-03-03T23:14:36.684Z,99422.67
2019-03-03T23:17:42.210Z,99408.14
2019-03-03T23:20:32.820Z,99413.98
2019-03-03T23:23:49.925Z,99400.82
2019-03-03T23:26:23.291Z,99408.92
2019-03-03T23:28:57.227Z,99398.45
2019-03-03T23:31:30.695Z,99397.12
2019-03-03T23:34:03.919Z,99394.71
2019-03-03T23:36:37.039Z,99388.00
2019-03-03T23:39:26.224Z,99389.08
2019-03-03T23:42:08.406Z,99367.29
2019-03-03T23:44:43.082Z,99364.05
2019-03-03T23:47:16.202Z,99362.19
2019-03-03T23:49:58.502Z,99351.16
2019-03-03T23:52:32.721Z,99341.47
2019-03-03T23:55:15.312Z,99338.78
2019-03-03T23:57:57.450Z,99334.50
